Time;durP1;ratioP1;P1;durP2;ratioP2;P2;SDS_P1;SDS_P2;PMS_P1;PMS_P2;Temp;Humidity;BMP_temperature;BMP_pressure;BME280_temperature;BME280_humidity;BME280_pressure;Samples;Min_cycle;Max_cycle;Signal;HPM_P1;HPM_P2
2022/09/19 00:00:28;;;;;;;;;;;;;;;7.26;100.00;95672.75;1042891;28;19936;-69
2022/09/19 00:01:05;;;;;;;;;;;;;;;7.26;100.00;95678.75;1036861;28;19922;-71
2022/09/19 00:01:37;;;;;;;;;;;;;;;7.26;100.00;95683.19;1029022;28;19909;-69
2022/09/19 00:02:07;;;;;;;;;;;;;;;7.25;100.00;95677.16;1034597;28;19937;-71
2022/09/19 00:02:37;;;;;;;;;;;;;;;7.25;100.00;95679.78;1034542;28;19963;-71
2022/09/19 00:03:08;;;;;;;;;;;;;;;7.23;100.00;95668.00;1030670;28;19917;-69
2022/09/19 00:03:39;;;;;;;;;;;;;;;7.23;100.00;95671.41;1021392;28;19975;-67
2022/09/19 00:04:09;;;;;;;;;;;;;;;7.24;100.00;95670.38;1030749;28;20016;-72
2022/09/19 00:04:39;;;;;;;;;;;;;;;7.23;100.00;95679.22;1030628;28;19922;-69
2022/09/19 00:05:09;;;;;;;;;;;;;;;7.21;100.00;95670.88;1038684;28;19921;-70
2022/09/19 00:05:40;;;;;;;;;;;;;;;7.19;100.00;95672.91;1042949;28;19917;-68
2022/09/19 00:06:11;;;;;;;;;;;;;;;7.21;100.00;95665.66;1038830;28;20015;-69
2022/09/19 00:06:42;;;;;;;;;;;;;;;7.19;100.00;95667.69;1038907;28;19913;-70
2022/09/19 00:07:12;;;;;;;;;;;;;;;7.19;100.00;95672.91;1038802;28;19917;-71
2022/09/19 00:07:43;;;;;;;;;;;;;;;7.18;100.00;95673.97;1037338;28;19917;-69
2022/09/19 00:08:13;;;;;;;;;;;;;;;7.18;100.00;95671.34;1042921;28;20378;-69
2022/09/19 00:08:44;;;;;;;;;;;;;;;7.19;100.00;95662.47;1038610;28;19921;-70
2022/09/19 00:09:15;;;;;;;;;;;;;;;7.21;100.00;95675.28;1034458;28;19924;-69
2022/09/19 00:09:46;;;;;;;;;;;;;;;7.20;100.00;95673.69;1030910;28;19914;-69
2022/09/19 00:10:16;;;;;;;;;;;;;;;7.18;100.00;95671.34;1030335;28;20427;-69
2022/09/19 00:10:46;;;;;;;;;;;;;;;7.18;100.00;95667.94;1033102;28;19972;-70
2022/09/19 00:11:19;;;;;;;;;;;;;;;7.17;100.00;95674.19;1038128;28;19921;-70
2022/09/19 00:11:50;;;;;;;;;;;;;;;7.17;100.00;95677.56;1038825;28;19917;-70
2022/09/19 00:12:20;;;;;;;;;;;;;;;7.17;100.00;95667.13;1037440;28;19921;-68
2022/09/19 00:12:52;;;;;;;;;;;;;;;7.18;100.00;95675.78;1034381;28;20379;-69
2022/09/19 00:13:22;;;;;;;;;;;;;;;7.18;100.00;95668.75;1030772;28;19921;-69
2022/09/19 00:13:54;;;;;;;;;;;;;;;7.17;100.00;95672.34;1038941;28;19926;-71
2022/09/19 00:14:25;;;;;;;;;;;;;;;7.16;100.00;95670.78;1039036;28;20299;-68
2022/09/19 00:14:57;;;;;;;;;;;;;;;7.16;100.00;95673.41;1043026;28;20355;-71
2022/09/19 00:15:28;;;;;;;;;;;;;;;7.18;100.00;95668.75;1038192;28;20434;-71
2022/09/19 00:15:58;;;;;;;;;;;;;;;7.17;100.00;95659.31;1035041;28;19922;-69
2022/09/19 00:16:30;;;;;;;;;;;;;;;7.18;100.00;95675.78;1034828;28;20012;-71
2022/09/19 00:17:01;;;;;;;;;;;;;;;7.19;100.00;95672.91;1035185;28;19913;-69
2022/09/19 00:17:31;;;;;;;;;;;;;;;7.20;100.00;95674.50;1035857;28;20032;-69
2022/09/19 00:18:02;;;;;;;;;;;;;;;7.21;100.00;95681.31;1039373;28;19971;-69
2022/09/19 00:18:32;;;;;;;;;;;;;;;7.20;100.00;95682.31;1034529;28;19921;-70
2022/09/19 00:19:04;;;;;;;;;;;;;;;7.21;100.00;95672.66;1035367;28;20012;-70
2022/09/19 00:19:35;;;;;;;;;;;;;;;7.21;100.00;95680.50;1034269;28;19921;-70
2022/09/19 00:20:06;;;;;;;;;;;;;;;7.20;100.00;95684.94;1031105;28;19921;-70
2022/09/19 00:20:47;;;;;;;;;;;;;;;7.19;100.00;95678.13;1043316;28;19912;-69
2022/09/19 00:21:19;;;;;;;;;;;;;;;7.20;100.00;95687.53;1035752;28;19924;-69
2022/09/19 00:21:50;;;;;;;;;;;;;;;7.19;100.00;95680.75;1039261;28;20016;-71
2022/09/19 00:22:20;;;;;;;;;;;;;;;7.20;100.00;95674.50;1032492;28;20371;-70
2022/09/19 00:24:45;;;;;;;;;;;;;;;7.20;100.00;95682.31;1042830;28;20367;-70
2022/09/19 00:25:16;;;;;;;;;;;;;;;7.18;100.00;95687.00;1042493;28;19920;-69
2022/09/19 00:25:46;;;;;;;;;;;;;;;7.18;100.00;95683.63;1043062;28;20382;-69
2022/09/19 00:26:17;;;;;;;;;;;;;;;7.20;100.00;95687.53;1042633;28;20205;-69
2022/09/19 00:26:47;;;;;;;;;;;;;;;7.18;100.00;95692.22;1042847;28;20329;-71
2022/09/19 00:27:28;;;;;;;;;;;;;;;7.17;100.00;95689.84;1038863;28;20365;-70
2022/09/19 00:27:58;;;;;;;;;;;;;;;7.18;100.00;95697.44;1038438;28;19909;-71
2022/09/19 00:28:29;;;;;;;;;;;;;;;7.18;100.00;95704.47;1034739;28;19979;-71
2022/09/19 00:28:59;;;;;;;;;;;;;;;7.20;100.00;95703.19;1036496;28;20311;-70
2022/09/19 00:29:29;;;;;;;;;;;;;;;7.20;100.00;95700.59;1038557;28;19923;-69
2022/09/19 00:30:00;;;;;;;;;;;;;;;7.19;100.00;95706.84;1033127;28;19918;-71
2022/09/19 00:30:30;;;;;;;;;;;;;;;7.18;100.00;95714.91;1042791;28;19924;-72
2022/09/19 00:31:00;;;;;;;;;;;;;;;7.18;100.00;95709.72;1042218;28;19916;-72
2022/09/19 00:31:31;;;;;;;;;;;;;;;7.20;100.00;95715.44;1042779;28;19985;-69
2022/09/19 00:32:01;;;;;;;;;;;;;;;7.21;100.00;95717.03;1034367;28;19914;-70
2022/09/19 00:32:33;;;;;;;;;;;;;;;7.21;100.00;95706.59;1034659;28;20004;-70
2022/09/19 00:33:04;;;;;;;;;;;;;;;7.18;100.00;95707.88;1038352;28;20421;-70
2022/09/19 00:33:34;;;;;;;;;;;;;;;7.18;100.00;95714.91;1034503;28;19921;-69
2022/09/19 00:34:06;;;;;;;;;;;;;;;7.16;100.00;95709.94;1031072;28;20012;-71
2022/09/19 00:34:37;;;;;;;;;;;;;;;7.18;100.00;95701.88;1028069;28;20038;-70
2022/09/19 00:35:08;;;;;;;;;;;;;;;7.19;100.00;95709.44;1027051;28;20417;-71
2022/09/19 00:35:38;;;;;;;;;;;;;;;7.19;100.00;95708.66;1030699;28;19918;-72
2022/09/19 00:36:08;;;;;;;;;;;;;;;7.14;100.00;95709.38;1031600;28;20028;-70
2022/09/19 00:36:39;;;;;;;;;;;;;;;7.15;100.00;95713.56;1038649;28;20294;-70
2022/09/19 00:37:10;;;;;;;;;;;;;;;7.14;100.00;95706.75;1038748;28;20294;-72
2022/09/19 00:37:40;;;;;;;;;;;;;;;7.13;100.00;95710.41;1038541;28;20433;-71
2022/09/19 00:38:10;;;;;;;;;;;;;;;7.13;100.00;95710.41;1034352;28;19917;-71
2022/09/19 00:38:41;;;;;;;;;;;;;;;7.11;100.00;95714.28;1034716;28;19920;-70
2022/09/19 00:39:12;;;;;;;;;;;;;;;7.12;100.00;95708.84;1034670;28;20505;-71
2022/09/19 00:39:42;;;;;;;;;;;;;;;7.12;100.00;95710.66;1038800;28;20322;-69
2022/09/19 00:40:12;;;;;;;;;;;;;;;7.07;100.00;95701.72;1038574;28;19920;-70
2022/09/19 00:40:43;;;;;;;;;;;;;;;7.08;100.00;95707.75;1034704;28;19917;-71
2022/09/19 00:41:17;;;;;;;;;;;;;;;7.08;100.00;95710.34;1029837;28;20604;-70
2022/09/19 00:41:48;;;;;;;;;;;;;;;7.00;100.00;95703.72;1031339;28;19910;-71
2022/09/19 00:42:19;;;;;;;;;;;;;;;6.89;100.00;95709.03;1035308;28;19917;-70
2022/09/19 00:42:50;;;;;;;;;;;;;;;6.58;100.00;95698.97;1031112;28;19917;-69
2022/09/19 00:43:21;;;;;;;;;;;;;;;6.47;100.00;95707.66;1027078;28;19933;-69
2022/09/19 00:43:52;;;;;;;;;;;;;;;6.33;100.00;95709.75;1030613;28;19951;-72
2022/09/19 00:44:22;;;;;;;;;;;;;;;6.29;100.00;95715.69;1030613;28;20012;-70
2022/09/19 00:44:57;;;;;;;;;;;;;;;6.17;100.00;95718.38;1031786;28;19933;-69
2022/09/19 00:45:27;;;;;;;;;;;;;;;6.07;100.00;95712.97;1027919;28;19921;-70
2022/09/19 00:45:57;;;;;;;;;;;;;;;6.00;100.00;95709.72;1035322;28;19929;-69
2022/09/19 00:46:29;;;;;;;;;;;;;;;5.94;100.00;95701.03;1035088;28;20389;-70
2022/09/19 00:46:59;;;;;;;;;;;;;;;5.93;100.00;95703.88;1035054;28;19917;-70
2022/09/19 00:47:35;;;;;;;;;;;;;;;5.88;100.00;95705.31;1039482;28;19959;-68
2022/09/19 00:48:05;;;;;;;;;;;;;;;5.86;100.00;95712.56;1040195;28;20024;-71
2022/09/19 00:48:38;;;;;;;;;;;;;;;5.86;100.00;95712.56;1039188;28;20398;-70
2022/09/19 00:49:10;;;;;;;;;;;;;;;5.82;100.00;95706.25;1039641;28;19972;-70
2022/09/19 00:49:42;;;;;;;;;;;;;;;5.77;100.00;95700.97;1038691;28;19993;-68
2022/09/19 00:50:15;;;;;;;;;;;;;;;5.76;100.00;95709.00;1035409;28;19917;-70
2022/09/19 00:50:46;;;;;;;;;;;;;;;5.76;100.00;95704.56;1039339;28;19924;-70
2022/09/19 00:51:19;;;;;;;;;;;;;;;5.82;100.00;95695.84;1034638;28;20326;-71
2022/09/19 00:51:49;;;;;;;;;;;;;;;5.80;100.00;95707.50;1031304;28;20013;-70
2022/09/19 00:52:46;;;;;;;;;;;;;;;5.79;100.00;95711.94;1031847;28;19917;-69
2022/09/19 00:53:17;;;;;;;;;;;;;;;5.81;100.00;95704.69;1039036;28;20294;-70
2022/09/19 00:53:48;;;;;;;;;;;;;;;5.83;100.00;95702.63;1047295;28;19919;-70
2022/09/19 00:54:41;;;;;;;;;;;;;;;5.81;100.00;95712.50;1039270;28;19917;-69
2022/09/19 00:55:11;;;;;;;;;;;;;;;5.82;100.00;95706.25;1043197;28;20382;-69
2022/09/19 00:55:41;;;;;;;;;;;;;;;5.83;100.00;95705.22;1031072;28;19918;-70
2022/09/19 00:56:13;;;;;;;;;;;;;;;5.84;100.00;95706.03;1031287;28;19953;-70
2022/09/19 00:56:44;;;;;;;;;;;;;;;5.83;100.00;95709.66;1036391;28;19920;-70
2022/09/19 00:57:15;;;;;;;;;;;;;;;5.81;100.00;95715.09;1035106;28;20012;-69
2022/09/19 00:57:48;;;;;;;;;;;;;;;5.81;100.00;95707.28;1035671;28;19922;-69
2022/09/19 00:58:28;;;;;;;;;;;;;;;5.84;100.00;95711.25;1039834;28;19970;-70
2022/09/19 00:58:58;;;;;;;;;;;;;;;5.83;100.00;95707.03;1043319;28;19916;-71
2022/09/19 00:59:29;;;;;;;;;;;;;;;5.81;100.00;95702.09;1033534;28;19947;-71
2022/09/19 01:00:00;;;;;;;;;;;;;;;5.85;100.00;95708.41;1031165;28;20426;-71
2022/09/19 01:00:31;;;;;;;;;;;;;;;5.86;100.00;95706.56;1023159;29;20026;-70
2022/09/19 01:01:01;;;;;;;;;;;;;;;5.87;100.00;95708.97;1030731;28;19917;-69
2022/09/19 01:01:32;;;;;;;;;;;;;;;5.88;100.00;95705.31;1027007;28;19922;-68
2022/09/19 01:02:04;;;;;;;;;;;;;;;5.87;100.00;95714.16;1035212;28;19921;-69
2022/09/19 01:02:34;;;;;;;;;;;;;;;5.88;100.00;95709.75;1034893;28;20302;-70
2022/09/19 01:03:09;;;;;;;;;;;;;;;5.87;100.00;95708.97;1031268;28;19964;-70
2022/09/19 01:03:39;;;;;;;;;;;;;;;5.89;100.00;95708.72;1035879;28;19968;-70
2022/09/19 01:04:14;;;;;;;;;;;;;;;5.88;100.00;95705.31;1040486;28;19971;-70
2022/09/19 01:04:44;;;;;;;;;;;;;;;5.93;100.00;95711.69;1035260;28;19993;-70
2022/09/19 01:05:16;;;;;;;;;;;;;;;5.91;100.00;95720.50;1033861;28;19985;-71
2022/09/19 01:05:49;;;;;;;;;;;;;;;5.94;100.00;95713.28;1036150;28;19959;-71
2022/09/19 01:06:35;;;;;;;;;;;;;;;5.94;100.00;95718.47;1036737;28;19917;-69
2022/09/19 01:07:18;;;;;;;;;;;;;;;5.97;100.00;95718.00;1044524;28;20344;-68
2022/09/19 01:08:03;;;;;;;;;;;;;;;5.96;100.00;95725.00;1047702;28;20311;-69
2022/09/19 01:08:52;;;;;;;;;;;;;;;5.98;100.00;95724.81;1045564;28;19920;-69
2022/09/19 01:09:23;;;;;;;;;;;;;;;5.98;100.00;95715.16;1039196;28;19948;-69
2022/09/19 01:09:59;;;;;;;;;;;;;;;5.98;100.00;95711.78;1039446;28;19909;-71
2022/09/19 01:10:49;;;;;;;;;;;;;;;6.02;100.00;95725.91;1042711;28;19917;-69
2022/09/19 01:11:37;;;;;;;;;;;;;;;6.02;100.00;95718.09;1039032;28;20010;-68
2022/09/19 01:12:16;;;;;;;;;;;;;;;6.02;100.00;95725.91;1039739;28;19913;-69
2022/09/19 01:13:09;;;;;;;;;;;;;;;6.02;100.00;95723.31;1043549;28;19917;-70
2022/09/19 01:13:54;;;;;;;;;;;;;;;6.04;100.00;95716.84;1039261;28;19913;-71
2022/09/19 01:14:44;;;;;;;;;;;;;;;6.06;100.00;95721.81;1033669;28;19917;-70
2022/09/19 01:15:19;;;;;;;;;;;;;;;6.04;100.00;95724.66;1031305;28;20509;-70
2022/09/19 01:16:09;;;;;;;;;;;;;;;6.04;100.00;95719.44;1032787;28;20407;-69
2022/09/19 01:16:44;;;;;;;;;;;;;;;6.04;100.00;95718.66;1039422;28;19917;-72
2022/09/19 01:17:45;;;;;;;;;;;;;;;6.06;100.00;95721.81;1035345;28;19999;-70
2022/09/19 01:18:18;;;;;;;;;;;;;;;6.07;100.00;95716.38;1040296;28;19963;-70
2022/09/19 01:19:05;;;;;;;;;;;;;;;6.07;100.00;95718.16;1043404;28;19917;-69
2022/09/19 01:19:38;;;;;;;;;;;;;;;6.09;100.00;95710.91;1043164;28;19921;-68
2022/09/19 01:20:20;;;;;;;;;;;;;;;6.11;100.00;95714.88;1039256;28;19917;-69
2022/09/19 01:22:03;;;;;;;;;;;;;;;6.16;100.00;95721.19;1042846;28;19928;-71
2022/09/19 01:22:43;;;;;;;;;;;;;;;5.85;100.00;95671.94;1043263;28;19912;-69
2022/09/19 01:23:22;;;;;;;;;;;;;;;6.17;100.00;95718.38;1039945;28;19962;-70
2022/09/19 01:23:55;;;;;;;;;;;;;;;6.19;100.00;95726.72;1045212;28;19917;-69
2022/09/19 01:24:36;;;;;;;;;;;;;;;6.19;100.00;95721.50;1044845;28;20669;-70
2022/09/19 01:25:22;;;;;;;;;;;;;;;6.21;100.00;95723.91;1043513;28;19913;-68
2022/09/19 01:25:55;;;;;;;;;;;;;;;6.22;100.00;95722.88;1039688;28;20378;-69
2022/09/19 01:26:40;;;;;;;;;;;;;;;6.23;100.00;95727.03;1043464;28;19917;-71
2022/09/19 01:27:18;;;;;;;;;;;;;;;6.24;100.00;95726.81;1043431;28;19912;-70
2022/09/19 01:27:59;;;;;;;;;;;;;;;6.25;100.00;95720.56;1028691;28;20594;-71
2022/09/19 01:28:32;;;;;;;;;;;;;;;6.26;100.00;95721.38;1027129;28;19925;-70
2022/09/19 01:29:07;;;;;;;;;;;;;;;6.27;100.00;95717.72;1035346;28;19917;-68
2022/09/19 01:29:39;;;;;;;;;;;;;;;6.28;100.00;95727.13;1034908;28;19921;-69
2022/09/19 01:30:12;;;;;;;;;;;;;;;6.27;100.00;95718.53;1029549;28;20525;-70
2022/09/19 01:30:46;;;;;;;;;;;;;;;6.27;100.00;95718.53;1035257;28;19910;-69
2022/09/19 01:31:20;;;;;;;;;;;;;;;6.27;100.00;95721.16;1035610;28;19914;-69
2022/09/19 01:31:52;;;;;;;;;;;;;;;6.30;100.00;95720.66;1027082;28;19965;-69
2022/09/19 01:32:24;;;;;;;;;;;;;;;6.30;100.00;95718.03;1020103;29;19971;-69
2022/09/19 01:32:59;;;;;;;;;;;;;;;6.30;100.00;95723.25;1032984;28;19973;-69
2022/09/19 01:33:29;;;;;;;;;;;;;;;6.31;100.00;95716.25;1041533;28;19988;-69
2022/09/19 01:34:02;;;;;;;;;;;;;;;6.31;100.00;95719.66;1047412;28;20313;-70
2022/09/19 01:34:37;;;;;;;;;;;;;;;6.33;100.00;95716.78;1044309;28;20440;-69
2022/09/19 01:35:09;;;;;;;;;;;;;;;6.34;100.00;95719.19;1043421;28;19956;-70
2022/09/19 01:35:39;;;;;;;;;;;;;;;6.34;100.00;95718.38;1035185;28;19913;-69
2022/09/19 01:36:10;;;;;;;;;;;;;;;6.37;100.00;95717.88;1035857;28;19917;-69
2022/09/19 01:36:46;;;;;;;;;;;;;;;6.37;100.00;95721.31;1030880;28;19924;-69
2022/09/19 01:37:22;;;;;;;;;;;;;;;6.37;100.00;95721.31;1031056;28;20414;-69
2022/09/19 01:37:56;;;;;;;;;;;;;;;6.38;100.00;95719.50;1039015;28;20132;-69
2022/09/19 01:38:26;;;;;;;;;;;;;;;6.42;100.00;95723.19;1039156;28;19917;-67
2022/09/19 01:38:57;;;;;;;;;;;;;;;6.44;100.00;95725.56;1035176;28;20016;-69
2022/09/19 01:39:29;;;;;;;;;;;;;;;6.44;100.00;95725.56;1030028;28;20331;-69
2022/09/19 01:40:00;;;;;;;;;;;;;;;6.43;100.00;95722.16;1023313;29;19918;-71
2022/09/19 01:40:31;;;;;;;;;;;;;;;6.45;100.00;95721.94;1027476;28;19925;-70
2022/09/19 01:41:01;;;;;;;;;;;;;;;6.47;100.00;95727.69;1031083;28;19972;-69
2022/09/19 01:41:32;;;;;;;;;;;;;;;6.51;100.00;95728.81;1023121;28;19918;-69
2022/09/19 01:42:02;;;;;;;;;;;;;;;6.52;100.00;95727.78;1027334;28;19963;-70
2022/09/19 01:42:33;;;;;;;;;;;;;;;6.51;100.00;95728.81;1035246;28;20086;-69
2022/09/19 01:43:05;;;;;;;;;;;;;;;6.53;100.00;95726.75;1037148;28;20092;-70
2022/09/19 01:43:35;;;;;;;;;;;;;;;6.54;100.00;95733.56;1038917;28;20006;-70
2022/09/19 01:44:14;;;;;;;;;;;;;;;6.56;100.00;95728.88;1039692;28;19921;-71
2022/09/19 01:44:45;;;;;;;;;;;;;;;6.57;100.00;95728.66;1037024;28;20290;-69
2022/09/19 01:45:15;;;;;;;;;;;;;;;6.57;100.00;95731.28;1036953;28;19945;-72
2022/09/19 01:45:46;;;;;;;;;;;;;;;6.58;100.00;95730.25;1039374;28;19921;-71
2022/09/19 01:46:21;;;;;;;;;;;;;;;6.57;100.00;95733.06;1039425;28;20317;-68
2022/09/19 01:47:13;;;;;;;;;;;;;;;6.57;100.00;95744.31;1039211;28;20002;-70
2022/09/19 01:47:49;;;;;;;;;;;;;;;6.55;100.00;95740.34;1034567;28;19918;-71
2022/09/19 01:48:25;;;;;;;;;;;;;;;6.55;100.00;95735.13;1030352;28;19918;-70
2022/09/19 01:49:00;;;;;;;;;;;;;;;6.51;100.00;95728.81;1035067;28;20381;-71
2022/09/19 01:49:51;;;;;;;;;;;;;;;6.50;100.00;95732.44;1037392;28;19914;-69
2022/09/19 01:50:26;;;;;;;;;;;;;;;6.45;100.00;95735.75;1039057;28;20386;-69
2022/09/19 01:51:10;;;;;;;;;;;;;;;6.44;100.00;95730.75;1024822;28;20139;-71
2022/09/19 01:51:45;;;;;;;;;;;;;;;6.41;100.00;95726.84;1029343;28;20319;-68
2022/09/19 01:52:24;;;;;;;;;;;;;;;6.41;100.00;95728.66;1035171;28;19921;-69
2022/09/19 01:52:58;;;;;;;;;;;;;;;6.37;100.00;95731.75;1042199;28;19961;-69
2022/09/19 01:53:31;;;;;;;;;;;;;;;6.35;100.00;95731.16;1042728;28;19920;-69
2022/09/19 01:54:21;;;;;;;;;;;;;;;6.33;100.00;95728.00;1041840;28;19921;-69
2022/09/19 01:54:55;;;;;;;;;;;;;;;6.29;100.00;95720.91;1040259;28;19970;-70
2022/09/19 01:55:26;;;;;;;;;;;;;;;6.28;100.00;95730.53;1043105;28;20031;-71
2022/09/19 01:56:23;;;;;;;;;;;;;;;6.28;100.00;95729.75;1042478;28;20366;-69
2022/09/19 01:57:01;;;;;;;;;;;;;;;6.23;100.00;95722.63;1031153;28;19924;-69
2022/09/19 01:57:38;;;;;;;;;;;;;;;6.22;100.00;95728.88;1028807;28;19953;-68
2022/09/19 01:58:28;;;;;;;;;;;;;;;6.20;100.00;95727.50;1031061;28;19963;-72
2022/09/19 01:59:01;;;;;;;;;;;;;;;6.18;100.00;95732.97;1038889;28;20414;-68
2022/09/19 01:59:50;;;;;;;;;;;;;;;6.18;100.00;95732.97;1038737;28;19917;-69
2022/09/19 02:00:22;;;;;;;;;;;;;;;6.16;100.00;95732.41;1035062;28;19976;-70
2022/09/19 02:01:08;;;;;;;;;;;;;;;6.12;100.00;95731.28;1034101;28;20346;-69
2022/09/19 02:02:00;;;;;;;;;;;;;;;6.09;100.00;95731.75;1038706;28;20500;-71
2022/09/19 02:02:42;;;;;;;;;;;;;;;6.06;100.00;95742.66;1039203;28;19971;-69
2022/09/19 02:03:23;;;;;;;;;;;;;;;6.03;100.00;95745.72;1039927;28;20332;-73
2022/09/19 02:04:00;;;;;;;;;;;;;;;6.02;100.00;95737.13;1043390;28;19921;-72
2022/09/19 02:04:32;;;;;;;;;;;;;;;6.04;100.00;95736.91;1043499;28;19917;-71
2022/09/19 02:05:06;;;;;;;;;;;;;;;6.03;100.00;95743.09;1043610;28;19966;-72
2022/09/19 02:05:50;;;;;;;;;;;;;;;6.04;100.00;95744.72;1043691;28;20066;-72
2022/09/19 02:06:22;;;;;;;;;;;;;;;6.04;100.00;95749.91;1039420;28;20306;-70
2022/09/19 02:06:58;;;;;;;;;;;;;;;5.81;100.00;95711.72;1042022;28;20531;-71
2022/09/19 02:07:51;;;;;;;;;;;;;;;5.99;100.00;95748.00;1035337;28;19921;-70
2022/09/19 02:08:29;;;;;;;;;;;;;;;5.99;100.00;95744.59;1043248;28;20466;-70
2022/09/19 02:09:08;;;;;;;;;;;;;;;5.96;100.00;95753.66;1039411;28;19948;-71
2022/09/19 02:09:42;;;;;;;;;;;;;;;5.76;100.00;95722.81;1047442;28;20003;-72
2022/09/19 02:10:19;;;;;;;;;;;;;;;5.93;100.00;95754.13;1043636;28;19924;-71
2022/09/19 02:10:57;;;;;;;;;;;;;;;5.92;100.00;95755.13;1035039;28;19964;-70
2022/09/19 02:11:27;;;;;;;;;;;;;;;5.91;100.00;95759.56;1033690;28;19918;-70
2022/09/19 02:11:59;;;;;;;;;;;;;;;5.88;100.00;95752.19;1031095;28;20747;-70
2022/09/19 02:12:30;;;;;;;;;;;;;;;5.88;100.00;95752.19;1030972;28;19917;-70
2022/09/19 02:13:03;;;;;;;;;;;;;;;5.85;100.00;95757.88;1031625;28;19914;-70
2022/09/19 02:13:34;;;;;;;;;;;;;;;5.85;100.00;95752.66;1032378;28;19914;-72
2022/09/19 02:14:07;;;;;;;;;;;;;;;5.69;100.00;95732.56;1038385;28;19971;-70
2022/09/19 02:14:37;;;;;;;;;;;;;;;5.85;100.00;95764.91;1040128;28;19917;-70
2022/09/19 02:15:08;;;;;;;;;;;;;;;5.82;100.00;95760.94;1040019;28;19913;-70
2022/09/19 02:15:39;;;;;;;;;;;;;;;5.81;100.00;95772.38;1034854;28;19920;-69
2022/09/19 02:16:32;;;;;;;;;;;;;;;5.79;100.00;95763.22;1030561;28;20028;-71
2022/09/19 02:17:06;;;;;;;;;;;;;;;5.74;100.00;95763.91;1034949;28;19917;-72
2022/09/19 02:17:44;;;;;;;;;;;;;;;5.76;100.00;95759.25;1038823;28;19913;-70
2022/09/19 02:18:24;;;;;;;;;;;;;;;5.75;100.00;95762.09;1031084;28;19918;-68
2022/09/19 02:18:56;;;;;;;;;;;;;;;5.74;100.00;95769.13;1038002;28;19913;-72
2022/09/19 02:19:33;;;;;;;;;;;;;;;5.73;100.00;95764.91;1032644;28;20381;-70
2022/09/19 02:20:07;;;;;;;;;;;;;;;5.73;100.00;95767.53;1033542;28;19922;-70
2022/09/19 02:20:39;;;;;;;;;;;;;;;5.72;100.00;95773.75;1033220;28;19971;-68
2022/09/19 02:21:13;;;;;;;;;;;;;;;5.70;100.00;95770.63;1033906;28;20024;-72
2022/09/19 02:21:47;;;;;;;;;;;;;;;5.68;100.00;95764.84;1031156;28;19914;-70
2022/09/19 02:22:20;;;;;;;;;;;;;;;5.66;100.00;95767.66;1032133;28;19928;-69
2022/09/19 02:22:51;;;;;;;;;;;;;;;5.68;100.00;95775.25;1034994;28;19952;-69
2022/09/19 02:23:23;;;;;;;;;;;;;;;5.71;100.00;95771.41;1036631;28;19917;-70
2022/09/19 02:23:55;;;;;;;;;;;;;;;5.68;100.00;95777.84;1039889;28;20024;-70
2022/09/19 02:24:27;;;;;;;;;;;;;;;5.66;100.00;95770.25;1034725;28;19954;-70
2022/09/19 02:24:59;;;;;;;;;;;;;;;5.70;100.00;95772.41;1030508;28;19956;-71
2022/09/19 02:25:32;;;;;;;;;;;;;;;5.69;100.00;95774.22;1035095;28;19917;-70
2022/09/19 02:26:03;;;;;;;;;;;;;;;5.67;100.00;95776.28;1036806;28;19917;-71
2022/09/19 02:26:33;;;;;;;;;;;;;;;5.68;100.00;95772.63;1039641;28;20385;-72
2022/09/19 02:27:07;;;;;;;;;;;;;;;5.67;100.00;95776.28;1033990;28;19917;-70
2022/09/19 02:27:50;;;;;;;;;;;;;;;5.66;100.00;95774.66;1031906;28;20012;-72
2022/09/19 02:28:25;;;;;;;;;;;;;;;5.68;100.00;95773.44;1037206;28;19952;-70
2022/09/19 02:28:56;;;;;;;;;;;;;;;5.67;100.00;95776.28;1041872;28;19999;-72
2022/09/19 02:29:30;;;;;;;;;;;;;;;5.66;100.00;95777.28;1038341;28;20667;-70
2022/09/19 02:30:02;;;;;;;;;;;;;;;5.65;100.00;95776.50;1037563;28;19917;-69
2022/09/19 02:30:33;;;;;;;;;;;;;;;5.63;100.00;95773.34;1031299;28;20380;-70
2022/09/19 02:31:04;;;;;;;;;;;;;;;5.64;100.00;95774.13;1030969;28;19949;-70
2022/09/19 02:31:34;;;;;;;;;;;;;;;5.66;100.00;95774.66;1033124;28;19917;-70
2022/09/19 02:32:07;;;;;;;;;;;;;;;5.65;100.00;95779.09;1035481;28;20379;-68
2022/09/19 02:32:38;;;;;;;;;;;;;;;5.65;100.00;95779.09;1035349;28;19918;-68
2022/09/19 02:33:09;;;;;;;;;;;;;;;5.65;100.00;95778.31;1035908;28;19917;-69
2022/09/19 02:33:39;;;;;;;;;;;;;;;5.62;100.00;95776.16;1040455;28;19924;-68
2022/09/19 02:34:10;;;;;;;;;;;;;;;5.63;100.00;95780.34;1035445;28;20020;-72
2022/09/19 02:34:40;;;;;;;;;;;;;;;5.63;100.00;95785.53;1032660;28;19918;-68
2022/09/19 02:35:13;;;;;;;;;;;;;;;5.61;100.00;95779.78;1035627;28;19947;-69
2022/09/19 02:35:46;;;;;;;;;;;;;;;5.60;100.00;95778.19;1032163;28;19910;-68
2022/09/19 02:36:30;;;;;;;;;;;;;;;5.59;100.00;95781.81;1039600;28;19917;-71
2022/09/19 02:37:30;;;;;;;;;;;;;;;5.56;100.00;95775.25;1031580;28;19933;-69
2022/09/19 02:38:14;;;;;;;;;;;;;;;5.54;100.00;95781.72;1037093;28;19996;-67
2022/09/19 02:38:49;;;;;;;;;;;;;;;5.49;100.00;95774.59;1035343;28;19924;-69
2022/09/19 02:39:20;;;;;;;;;;;;;;;5.49;100.00;95784.22;1035644;28;19917;-69
2022/09/19 02:39:55;;;;;;;;;;;;;;;5.49;100.00;95779.00;1035556;28;19917;-70
2022/09/19 02:40:25;;;;;;;;;;;;;;;5.49;100.00;95781.63;1033239;28;19918;-70
2022/09/19 02:41:04;;;;;;;;;;;;;;;5.47;100.00;95781.06;1035636;28;20298;-69
2022/09/19 02:41:36;;;;;;;;;;;;;;;5.49;100.00;95779.81;1043630;28;19917;-69
2022/09/19 02:42:08;;;;;;;;;;;;;;;5.49;100.00;95781.63;1041628;28;19913;-69
2022/09/19 02:42:56;;;;;;;;;;;;;;;5.48;100.00;95782.63;1039737;28;19966;-69
2022/09/19 02:43:36;;;;;;;;;;;;;;;5.43;100.00;95781.53;1032649;28;20402;-68
2022/09/19 02:44:18;;;;;;;;;;;;;;;5.42;100.00;95779.91;1035597;28;19929;-69
2022/09/19 02:44:54;;;;;;;;;;;;;;;5.39;100.00;95780.38;1039480;28;20379;-70
2022/09/19 02:45:32;;;;;;;;;;;;;;;5.36;100.00;95778.22;1043338;28;19921;-68
2022/09/19 02:46:05;;;;;;;;;;;;;;;5.35;100.00;95774.06;1040528;28;20469;-68
2022/09/19 02:46:37;;;;;;;;;;;;;;;5.37;100.00;95774.63;1040566;28;19921;-69
2022/09/19 02:47:09;;;;;;;;;;;;;;;5.37;100.00;95772.03;1039711;28;20361;-69
2022/09/19 02:47:42;;;;;;;;;;;;;;;5.34;100.00;95772.47;1039655;28;20012;-69
2022/09/19 02:48:30;;;;;;;;;;;;;;;5.34;100.00;95772.47;1042870;28;20351;-71
2022/09/19 02:49:05;;;;;;;;;;;;;;;5.32;100.00;95774.50;1047928;28;20405;-69
2022/09/19 02:49:38;;;;;;;;;;;;;;;5.32;100.00;95773.72;1043649;28;19956;-71
2022/09/19 02:50:22;;;;;;;;;;;;;;;5.30;100.00;95776.56;1039643;28;20378;-69
2022/09/19 02:51:11;;;;;;;;;;;;;;;5.30;100.00;95770.53;1039595;28;19979;-69
2022/09/19 02:51:44;;;;;;;;;;;;;;;5.31;100.00;95777.34;1043500;28;20523;-71
2022/09/19 02:52:19;;;;;;;;;;;;;;;5.28;100.00;95775.19;1039554;28;19917;-69
2022/09/19 02:52:49;;;;;;;;;;;;;;;5.27;100.00;95782.22;1039129;28;20344;-70
2022/09/19 02:53:21;;;;;;;;;;;;;;;5.31;100.00;95780.72;1039478;28;19953;-70
2022/09/19 02:53:57;;;;;;;;;;;;;;;5.31;100.00;95782.56;1035479;28;19917;-68
2022/09/19 02:54:29;;;;;;;;;;;;;;;5.29;100.00;95779.38;1035605;28;20028;-68
2022/09/19 02:55:04;;;;;;;;;;;;;;;5.29;100.00;95785.38;1036610;28;20315;-70
2022/09/19 02:55:35;;;;;;;;;;;;;;;5.30;100.00;95781.75;1037011;28;19920;-69
2022/09/19 02:56:06;;;;;;;;;;;;;;;5.28;100.00;95783.78;1039583;28;20397;-70
2022/09/19 02:56:36;;;;;;;;;;;;;;;5.27;100.00;95781.44;1031350;28;19964;-71
2022/09/19 02:57:08;;;;;;;;;;;;;;;5.25;100.00;95784.25;1031487;28;19949;-69
2022/09/19 02:57:43;;;;;;;;;;;;;;;5.04;100.00;95758.81;1028141;28;19918;-70
2022/09/19 02:58:15;;;;;;;;;;;;;;;5.22;100.00;95789.91;1031328;28;20407;-69
2022/09/19 02:58:47;;;;;;;;;;;;;;;5.20;100.00;95795.34;1028531;28;20391;-69
2022/09/19 02:59:20;;;;;;;;;;;;;;;5.18;100.00;95789.56;1032603;28;20013;-68
2022/09/19 02:59:50;;;;;;;;;;;;;;;5.19;100.00;95790.34;1035304;28;20391;-68
2022/09/19 03:00:21;;;;;;;;;;;;;;;5.19;100.00;95795.56;1034840;28;19920;-69
2022/09/19 03:00:52;;;;;;;;;;;;;;;5.18;100.00;95794.75;1036046;28;19917;-68
2022/09/19 03:01:23;;;;;;;;;;;;;;;5.19;100.00;95790.34;1034839;28;19917;-69
2022/09/19 03:01:55;;;;;;;;;;;;;;;5.17;100.00;95793.19;1038327;28;20488;-72
2022/09/19 03:02:26;;;;;;;;;;;;;;;5.18;100.00;95799.19;1035123;28;19917;-69
2022/09/19 03:03:00;;;;;;;;;;;;;;;5.19;100.00;95803.34;1028123;28;19914;-70